Time;durP1;ratioP1;P1;durP2;ratioP2;P2;SDS_P1;SDS_P2;PMS_P1;PMS_P2;Temp;Humidity;BMP_temperature;BMP_pressure;BME280_temperature;BME280_humidity;BME280_pressure;Samples;Min_cycle;Max_cycle;Signal;HPM_P1;HPM_P2
2022/10/17 00:00:13;;;;;;;9.70;8.20;;;;;;;13.27;100.00;101518.81;5063635;28;20052;-58
2022/10/17 00:02:38;;;;;;;13.80;8.77;;;;;;;13.28;100.00;101507.19;5058347;28;20030;-59
2022/10/17 00:05:04;;;;;;;9.65;8.60;;;;;;;13.27;100.00;101508.16;5058793;28;20026;-58
2022/10/17 00:07:29;;;;;;;8.90;7.82;;;;;;;13.26;100.00;101512.63;5058319;28;20041;-58
2022/10/17 00:09:54;;;;;;;11.02;8.27;;;;;;;13.26;100.00;101512.63;5066514;28;20029;-60
2022/10/17 00:12:20;;;;;;;12.80;8.65;;;;;;;13.27;100.00;101519.69;5067020;28;20020;-59
2022/10/17 00:14:45;;;;;;;11.27;9.13;;;;;;;13.27;100.00;101516.16;5064649;28;20021;-59
2022/10/17 00:17:10;;;;;;;11.13;9.10;;;;;;;13.29;100.00;101509.75;5059450;28;20021;-59
2022/10/17 00:19:36;;;;;;;12.50;8.65;;;;;;;13.32;100.00;101519.34;5058894;28;20025;-59
2022/10/17 00:22:01;;;;;;;10.18;8.68;;;;;;;13.30;100.00;101511.41;5059936;28;20143;-59
2022/10/17 00:24:26;;;;;;;10.65;8.75;;;;;;;13.31;100.00;101501.63;5058647;28;20016;-59
2022/10/17 00:26:51;;;;;;;10.27;9.18;;;;;;;13.32;100.00;101500.66;5056863;28;20051;-59
2022/10/17 00:29:17;;;;;;;10.23;9.15;;;;;;;13.35;100.00;101497.75;5060221;28;20029;-58
2022/10/17 00:31:42;;;;;;;12.02;9.90;;;;;;;13.37;100.00;101487.81;5059661;28;20080;-60
2022/10/17 00:34:07;;;;;;;12.93;10.30;;;;;;;13.40;100.00;101484.91;5056004;28;20125;-59
2022/10/17 00:36:33;;;;;;;12.77;9.80;;;;;;;13.40;100.00;101484.91;5066853;28;20013;-60
2022/10/17 00:38:59;;;;;;;12.32;10.15;;;;;;;13.39;100.00;101491.22;5066818;28;20268;-59
2022/10/17 00:41:31;;;;;;;11.68;9.73;;;;;;;13.41;100.00;101483.94;5056240;28;20088;-59
2022/10/17 00:43:56;;;;;;;15.50;10.07;;;;;;;13.46;100.00;101488.94;5057467;28;20021;-58
2022/10/17 00:46:24;;;;;;;13.67;10.70;;;;;;;13.47;100.00;101490.63;5057700;28;20076;-59
2022/10/17 00:48:52;;;;;;;12.15;10.80;;;;;;;13.48;100.00;101487.00;5099967;22;20311;-82
2022/10/17 00:51:24;;;;;;;14.02;10.50;;;;;;;13.49;100.00;101486.88;5059168;28;20356;-82
2022/10/17 00:53:50;;;;;;;13.35;10.65;;;;;;;13.53;100.00;101492.81;5057441;28;20053;-82
2022/10/17 00:56:18;;;;;;;13.38;10.82;;;;;;;13.57;100.00;101491.59;5057629;28;20033;-81
2022/10/17 00:58:43;;;;;;;12.80;10.55;;;;;;;13.56;100.00;101487.22;5067943;28;20021;-82
2022/10/17 01:01:09;;;;;;;13.80;10.68;;;;;;;13.61;100.00;101487.72;5059579;28;20035;-83
2022/10/17 01:03:35;;;;;;;14.25;10.90;;;;;;;13.61;100.00;101494.88;5048180;28;20029;-82
2022/10/17 01:06:00;;;;;;;14.57;11.07;;;;;;;13.63;100.00;101483.09;5056309;28;20025;-81
2022/10/17 01:08:25;;;;;;;14.63;11.07;;;;;;;13.64;100.00;101486.63;5056311;28;20040;-81
2022/10/17 01:11:21;;;;;;;13.55;11.95;;;;;;;13.66;100.00;101482.03;5057155;28;20475;-83
2022/10/17 01:13:52;;;;;;;15.90;11.43;;;;;;;13.68;100.00;101486.25;5056898;28;20055;-82
2022/10/17 01:16:31;;;;;;;15.00;10.80;;;;;;;13.68;100.00;101486.25;5044133;28;20064;-82
2022/10/17 01:19:13;;;;;;;17.85;11.52;;;;;;;13.69;100.00;101484.44;5056055;28;20499;-82
2022/10/17 01:21:45;;;;;;;15.27;11.93;;;;;;;13.73;100.00;101488.56;5056104;28;20127;-81
2022/10/17 01:24:32;;;;;;;13.55;10.95;;;;;;;13.73;100.00;101498.41;5054350;28;20033;-83
2022/10/17 01:27:00;;;;;;;12.73;11.43;;;;;;;13.76;100.00;101482.13;5063808;28;20555;-82
2022/10/17 01:30:02;;;;;;;14.45;11.38;;;;;;;13.77;100.00;101482.03;5062024;28;20079;-82
2022/10/17 01:32:42;;;;;;;16.13;11.38;;;;;;;13.79;100.00;101479.19;5059397;28;20025;-83
2022/10/17 01:35:26;;;;;;;13.32;11.75;;;;;;;13.81;100.00;101487.97;5061001;28;20044;-83
2022/10/17 01:38:06;;;;;;;13.60;12.10;;;;;;;13.87;100.00;101479.44;5051213;28;20017;-83
2022/10/17 01:40:38;;;;;;;15.02;10.88;;;;;;;13.86;100.00;101470.59;5061023;28;20037;-83
2022/10/17 01:43:11;;;;;;;14.13;11.32;;;;;;;13.87;100.00;101479.44;5060717;28;20041;-83
2022/10/17 01:45:48;;;;;;;12.98;11.00;;;;;;;13.83;100.00;101461.97;5067821;28;20032;-83
2022/10/17 01:48:18;;;;;;;12.98;11.65;;;;;;;13.88;100.00;101475.81;5064069;28;20052;-83
2022/10/17 01:50:49;;;;;;;14.30;11.70;;;;;;;13.88;100.00;101473.13;5060655;28;20391;-83
2022/10/17 01:53:31;;;;;;;13.95;11.30;;;;;;;13.92;100.00;101477.25;5065469;28;20025;-83
2022/10/17 01:56:01;;;;;;;12.88;11.45;;;;;;;13.94;100.00;101478.00;5057930;28;20033;-83
2022/10/17 01:58:32;;;;;;;14.93;10.55;;;;;;;13.92;100.00;101476.41;5055872;28;20032;-83
2022/10/17 02:01:01;;;;;;;13.00;10.55;;;;;;;13.94;100.00;101469.97;5067653;28;20035;-83
2022/10/17 02:03:28;;;;;;;12.98;10.82;;;;;;;13.97;100.00;101469.72;5060794;28;20037;-83
2022/10/17 02:05:53;;;;;;;11.60;10.40;;;;;;;14.00;100.00;101464.13;5063823;28;20459;-83
2022/10/17 02:08:27;;;;;;;12.57;10.88;;;;;;;14.03;100.00;101468.38;5061365;28;20083;-83
2022/10/17 02:11:03;;;;;;;16.52;10.77;;;;;;;14.02;100.00;101459.53;5056862;28;20052;-83
2022/10/17 02:14:17;;;;;;;12.93;10.82;;;;;;;14.04;100.00;101456.72;5067234;28;20112;-83
2022/10/17 02:17:24;;;;;;;11.68;10.43;;;;;;;14.04;100.00;101452.22;5059951;28;20123;-83
2022/10/17 02:20:08;;;;;;;12.65;10.10;;;;;;;14.04;100.00;101448.72;5054608;28;21545;-83
2022/10/17 02:22:56;;;;;;;16.38;10.15;;;;;;;14.06;100.00;101447.59;5055438;28;20056;-83
2022/10/17 02:25:36;;;;;;;12.98;10.35;;;;;;;14.06;100.00;101457.44;5062145;28;20056;-83
2022/10/17 02:28:13;;;;;;;14.02;11.00;;;;;;;14.05;100.00;101455.72;5061156;28;20040;-83
2022/10/17 02:30:53;;;;;;;13.75;10.15;;;;;;;14.04;100.00;101457.56;5066825;28;20103;-83
2022/10/17 02:33:28;;;;;;;17.02;10.90;;;;;;;14.03;100.00;101452.34;5063911;28;20033;-83
2022/10/17 02:35:59;;;;;;;14.77;10.15;;;;;;;14.05;100.00;101461.94;5061869;28;20060;-83
2022/10/17 02:38:27;;;;;;;13.45;10.55;;;;;;;14.05;100.00;101453.94;5057459;28;20037;-82
2022/10/17 02:40:53;;;;;;;12.43;11.13;;;;;;;14.05;100.00;101461.94;5057257;28;20387;-82
2022/10/17 02:43:20;;;;;;;15.57;10.82;;;;;;;14.07;100.00;101456.44;5071403;28;20025;-82
2022/10/17 02:45:50;;;;;;;13.32;10.98;;;;;;;14.07;100.00;101460.00;5063370;28;20028;-82
2022/10/17 02:48:18;;;;;;;14.32;10.48;;;;;;;14.06;100.00;101454.78;5065232;28;20048;-83
2022/10/17 02:51:03;;;;;;;16.33;10.18;;;;;;;14.06;100.00;101454.78;5060089;28;20446;-83
2022/10/17 02:53:45;;;;;;;15.05;10.52;;;;;;;14.05;100.00;101458.41;5060183;28;20479;-83
2022/10/17 02:56:17;;;;;;;12.75;10.43;;;;;;;14.03;100.00;101457.69;5058544;28;20033;-83
2022/10/17 02:58:46;;;;;;;14.38;10.15;;;;;;;14.00;100.00;101449.91;5058215;28;20044;-82
2022/10/17 03:01:12;;;;;;;12.93;10.52;;;;;;;13.99;100.00;101449.09;5059866;28;20028;-83
2022/10/17 03:03:37;;;;;;;15.23;10.93;;;;;;;14.01;100.00;101444.47;5064158;28;20091;-83
2022/10/17 03:06:03;;;;;;;14.93;10.55;;;;;;;14.04;100.00;101454.06;5063057;28;20032;-83
2022/10/17 03:08:28;;;;;;;12.02;10.45;;;;;;;14.04;100.00;101456.72;5062518;28;20518;-83
2022/10/17 03:10:53;;;;;;;14.13;9.70;;;;;;;14.06;100.00;101452.94;5065200;28;20028;-83
2022/10/17 03:13:19;;;;;;;15.23;10.18;;;;;;;14.06;100.00;101452.09;5054337;28;20048;-83
2022/10/17 03:15:44;;;;;;;14.02;9.88;;;;;;;14.06;100.00;101449.44;5067043;28;20057;-84
2022/10/17 03:18:09;;;;;;;13.68;10.18;;;;;;;14.07;100.00;101454.66;5072675;28;20044;-82
2022/10/17 03:20:35;;;;;;;14.55;9.82;;;;;;;14.08;100.00;101447.47;5059290;28;20391;-82
2022/10/17 03:23:00;;;;;;;11.65;10.07;;;;;;;14.09;100.00;101445.63;5060113;28;20108;-83
2022/10/17 03:25:26;;;;;;;13.05;10.40;;;;;;;14.08;100.00;101450.16;5058212;28;20025;-83
2022/10/17 03:27:51;;;;;;;11.93;9.85;;;;;;;14.07;100.00;101456.44;5068572;28;20067;-83
2022/10/17 03:30:17;;;;;;;13.55;10.35;;;;;;;14.09;100.00;101451.84;5070403;28;20039;-82
2022/10/17 03:32:42;;;;;;;14.25;9.93;;;;;;;14.10;100.00;101458.88;5068828;28;20029;-83
2022/10/17 03:35:08;;;;;;;12.50;9.80;;;;;;;14.11;100.00;101444.56;5071223;28;20021;-82
2022/10/17 03:37:33;;;;;;;13.10;9.80;;;;;;;14.12;100.00;101454.28;5070492;28;20028;-82
2022/10/17 03:39:58;;;;;;;17.50;10.40;;;;;;;14.12;100.00;101451.59;5061731;28;20031;-82
2022/10/17 03:42:23;;;;;;;14.10;10.13;;;;;;;14.13;100.00;101450.63;5057864;28;20029;-83
2022/10/17 03:44:49;;;;;;;14.65;9.88;;;;;;;14.14;100.00;101451.44;5067562;28;20021;-83
2022/10/17 03:47:14;;;;;;;11.68;9.77;;;;;;;14.10;100.00;101437.50;5072042;28;20024;-83
2022/10/17 03:49:39;;;;;;;13.68;9.85;;;;;;;14.11;100.00;101433.03;5063100;28;20037;-83
2022/10/17 03:52:05;;;;;;;12.95;10.55;;;;;;;14.12;100.00;101435.56;5063410;28;20060;-82
2022/10/17 03:54:30;;;;;;;11.35;9.35;;;;;;;14.11;100.00;101443.72;5077139;28;20032;-83
2022/10/17 03:56:55;;;;;;;11.68;9.50;;;;;;;14.13;100.00;101445.28;5067149;28;20025;-83
2022/10/17 03:59:21;;;;;;;10.85;9.70;;;;;;;14.13;100.00;101445.28;5069834;28;20036;-83
2022/10/17 04:01:46;;;;;;;10.98;9.73;;;;;;;14.12;100.00;101450.75;5061979;28;20028;-83
2022/10/17 04:04:11;;;;;;;13.20;9.88;;;;;;;14.13;100.00;101447.94;5059921;28;20025;-83
2022/10/17 04:06:37;;;;;;;12.57;10.68;;;;;;;14.15;100.00;101451.31;5060310;28;20032;-83
2022/10/17 04:09:04;;;;;;;13.40;10.20;;;;;;;14.16;100.00;101460.22;5063652;28;20049;-83
2022/10/17 04:11:30;;;;;;;13.38;10.57;;;;;;;14.16;100.00;101460.22;5067154;28;20072;-83
2022/10/17 04:13:56;;;;;;;16.48;10.48;;;;;;;14.17;100.00;101457.41;5062589;28;20434;-83
2022/10/17 04:16:23;;;;;;;13.30;9.70;;;;;;;14.18;100.00;101468.94;5068811;28;20048;-83
2022/10/17 04:18:53;;;;;;;14.23;9.50;;;;;;;14.18;100.00;101468.94;5059289;28;20044;-82
2022/10/17 04:21:18;;;;;;;12.32;9.25;;;;;;;14.20;100.00;101465.16;5051266;28;20032;-82
2022/10/17 04:23:45;;;;;;;10.98;8.77;;;;;;;14.22;100.00;101465.91;5059041;28;20025;-82
2022/10/17 04:26:11;;;;;;;14.50;9.95;;;;;;;14.25;100.00;101483.47;5062055;28;20364;-82
2022/10/17 04:28:36;;;;;;;13.35;9.25;;;;;;;14.26;100.00;101471.84;5066282;28;20055;-82
2022/10/17 04:31:05;;;;;;;13.95;9.77;;;;;;;14.30;100.00;101485.78;5063773;28;20021;-82
2022/10/17 04:33:31;;;;;;;11.50;9.30;;;;;;;14.32;100.00;101481.16;5060437;28;20047;-81
2022/10/17 04:36:01;;;;;;;9.55;8.48;;;;;;;14.30;100.00;101475.94;5051902;28;20032;-81
2022/10/17 04:38:28;;;;;;;11.15;8.95;;;;;;;14.32;100.00;101494.53;5069819;28;20021;-82
2022/10/17 04:40:55;;;;;;;11.90;8.77;;;;;;;14.30;100.00;101501.81;5065918;28;20033;-82
2022/10/17 04:43:21;;;;;;;13.85;9.48;;;;;;;14.30;100.00;101512.50;5057503;28;20025;-82
2022/10/17 04:45:49;;;;;;;11.30;9.00;;;;;;;14.32;100.00;101508.75;5068998;28;20024;-82
2022/10/17 04:48:14;;;;;;;12.18;8.68;;;;;;;14.29;100.00;101500.97;5058362;28;20049;-82
2022/10/17 04:50:39;;;;;;;10.38;8.52;;;;;;;14.29;100.00;101510.78;5058563;28;20522;-82
2022/10/17 04:53:05;;;;;;;15.27;8.52;;;;;;;14.31;100.00;101508.88;5055787;28;20044;-83
2022/10/17 04:55:30;;;;;;;12.40;8.43;;;;;;;14.31;100.00;101515.06;5056411;28;20096;-82
2022/10/17 04:57:55;;;;;;;13.20;8.38;;;;;;;14.32;100.00;101521.25;5062954;28;20097;-82
2022/10/17 05:00:21;;;;;;;13.32;8.57;;;;;;;14.31;100.00;101512.38;5061172;28;20060;-82
2022/10/17 05:02:46;;;;;;;11.00;8.75;;;;;;;14.33;100.00;101522.94;5058582;28;20025;-81
2022/10/17 05:05:11;;;;;;;13.52;8.18;;;;;;;14.32;100.00;101519.44;5054566;28;20037;-83
2022/10/17 05:07:40;;;;;;;9.32;7.68;;;;;;;14.35;100.00;101521.00;5077114;28;20205;-82
2022/10/17 05:10:06;;;;;;;9.48;8.45;;;;;;;14.38;100.00;101518.91;5071348;28;20020;-82
2022/10/17 05:12:31;;;;;;;14.00;8.43;;;;;;;14.42;100.00;101500.78;5058730;28;20032;-83
2022/10/17 05:14:56;;;;;;;12.40;8.18;;;;;;;14.43;100.00;101498.00;5054110;28;20036;-83
2022/10/17 05:17:22;;;;;;;11.27;8.13;;;;;;;14.44;100.00;101518.41;5080024;28;20031;-84
2022/10/17 05:19:47;;;;;;;11.98;7.97;;;;;;;14.49;100.00;101522.53;5084049;28;20040;-83
2022/10/17 05:22:12;;;;;;;11.02;7.97;;;;;;;14.50;100.00;101532.25;5062364;28;20064;-82
2022/10/17 05:24:38;;;;;;;10.82;7.75;;;;;;;14.50;100.00;101524.22;5062739;28;20025;-83
2022/10/17 05:27:03;;;;;;;11.98;7.40;;;;;;;14.51;100.00;101531.28;5065234;28;20137;-82
2022/10/17 05:29:28;;;;;;;12.05;8.27;;;;;;;14.51;100.00;101540.16;5059978;28;20170;-83
2022/10/17 05:31:54;;;;;;;10.60;8.43;;;;;;;14.56;100.00;101537.09;5057677;28;20036;-82
2022/10/17 05:34:19;;;;;;;10.45;7.82;;;;;;;14.57;100.00;101523.59;5061113;28;20364;-82
2022/10/17 05:36:44;;;;;;;10.77;9.40;;;;;;;14.63;100.00;101526.78;5065140;28;20027;-83
2022/10/17 05:39:13;;;;;;;10.05;7.72;;;;;;;14.66;100.00;101534.56;5063164;28;20021;-82
2022/10/17 05:41:39;;;;;;;10.65;8.13;;;;;;;14.70;100.00;101535.97;5058466;28;20036;-82
2022/10/17 05:44:04;;;;;;;11.85;8.15;;;;;;;14.74;100.00;101538.28;5060512;28;20024;-82
2022/10/17 05:46:29;;;;;;;11.20;8.13;;;;;;;14.74;100.00;101542.78;5059311;28;20033;-82
2022/10/17 05:48:55;;;;;;;10.32;7.45;;;;;;;14.77;100.00;101547.84;5065253;28;20137;-82
2022/10/17 05:51:21;;;;;;;10.13;7.63;;;;;;;14.78;100.00;101546.88;5065534;28;20016;-83
2022/10/17 05:53:46;;;;;;;11.57;8.25;;;;;;;14.78;100.00;101539.69;5066124;28;20106;-83
2022/10/17 05:56:13;;;;;;;9.85;7.18;;;;;;;14.78;100.00;101538.88;5049800;28;20107;-83
2022/10/17 05:58:41;;;;;;;10.52;7.82;;;;;;;14.84;100.00;101542.84;5059927;28;20112;-81
2022/10/17 06:01:06;;;;;;;12.35;7.60;;;;;;;14.84;100.00;101535.69;5058155;28;20052;-81
2022/10/17 06:03:32;;;;;;;12.48;7.65;;;;;;;14.87;100.00;101539.91;5058928;28;20074;-81
2022/10/17 06:06:09;;;;;;;10.65;8.38;;;;;;;14.88;100.00;101545.13;5058369;28;20021;-84
2022/10/17 06:08:36;;;;;;;8.52;7.45;;;;;;;14.89;100.00;101543.31;5059530;28;20039;-84
2022/10/17 06:11:02;;;;;;;9.77;7.47;;;;;;;14.93;100.00;101548.28;5059176;28;20059;-83
2022/10/17 06:13:28;;;;;;;14.85;8.27;;;;;;;14.98;100.00;101548.72;5057408;28;20033;-84
2022/10/17 06:15:53;;;;;;;13.07;7.43;;;;;;;14.97;100.00;101544.38;5056588;28;20048;-84
2022/10/17 06:18:19;;;;;;;11.02;7.35;;;;;;;15.02;100.00;101551.16;5059850;28;20033;-84
2022/10/17 06:20:44;;;;;;;10.80;7.47;;;;;;;15.01;100.00;101555.66;5063980;28;20051;-84
2022/10/17 06:23:10;;;;;;;10.77;7.43;;;;;;;15.05;100.00;101553.56;5057084;28;20124;-85
2022/10/17 06:25:35;;;;;;;9.43;7.30;;;;;;;15.05;100.00;101554.41;5062627;28;20505;-84
2022/10/17 06:28:01;;;;;;;10.02;6.80;;;;;;;15.06;100.00;101553.44;5055005;28;20032;-84
2022/10/17 06:30:26;;;;;;;9.55;6.90;;;;;;;15.12;100.00;101557.41;5058328;28;20041;-84
2022/10/17 06:32:53;;;;;;;10.50;6.90;;;;;;;15.10;100.00;101552.19;5053457;28;20069;-84
2022/10/17 06:35:19;;;;;;;10.93;6.85;;;;;;;15.14;100.00;101559.00;5042031;28;20072;-83
2022/10/17 06:37:45;;;;;;;9.93;7.32;;;;;;;15.17;100.00;101556.06;5053632;28;20541;-83
2022/10/17 06:40:11;;;;;;;13.93;6.88;;;;;;;15.17;100.00;101556.06;5061683;28;20033;-83
2022/10/17 06:42:37;;;;;;;11.90;7.00;;;;;;;15.21;100.00;101564.69;5060208;28;20040;-85
2022/10/17 06:45:04;;;;;;;12.93;7.18;;;;;;;15.21;100.00;101567.34;5055186;28;20041;-83
2022/10/17 06:47:29;;;;;;;11.48;7.50;;;;;;;15.21;100.00;101578.06;5058341;28;20037;-84
2022/10/17 06:49:54;;;;;;;10.45;6.53;;;;;;;15.22;100.00;101581.56;5063846;28;20052;-84
2022/10/17 06:52:23;;;;;;;15.30;7.10;;;;;;;15.24;100.00;101569.78;5055815;28;20076;-83
2022/10/17 06:54:50;;;;;;;11.98;7.03;;;;;;;15.27;100.00;101582.03;5053860;28;20017;-83
2022/10/17 06:57:16;;;;;;;10.18;6.75;;;;;;;15.30;100.00;101579.09;5058884;28;20044;-83
2022/10/17 06:59:42;;;;;;;12.52;6.80;;;;;;;15.31;100.00;101576.28;5049298;28;20025;-85
2022/10/17 07:02:09;;;;;;;9.07;6.55;;;;;;;15.34;100.00;101570.69;5038776;28;20029;-84
2022/10/17 07:04:34;;;;;;;14.13;7.15;;;;;;;15.39;100.00;101581.00;5056314;28;20068;-83
2022/10/17 07:07:01;;;;;;;9.80;6.00;;;;;;;15.42;100.00;101586.09;5063375;28;20408;-83
2022/10/17 07:09:27;;;;;;;9.45;6.68;;;;;;;15.45;100.00;101590.34;5056676;28;20146;-84
2022/10/17 07:11:53;;;;;;;9.85;6.90;;;;;;;15.46;100.00;101581.34;5056731;28;20029;-84
2022/10/17 07:14:18;;;;;;;11.90;7.13;;;;;;;15.47;100.00;101580.34;5045306;28;20037;-84
2022/10/17 07:16:44;;;;;;;9.90;6.10;;;;;;;15.50;100.00;101585.44;5054473;28;20533;-84
2022/10/17 07:19:09;;;;;;;13.48;6.50;;;;;;;15.50;100.00;101580.06;5050790;28;20057;-84
2022/10/17 07:21:34;;;;;;;11.80;6.20;;;;;;;15.52;100.00;101587.00;5056238;28;20108;-82
2022/10/17 07:24:00;;;;;;;8.30;6.13;;;;;;;15.55;100.00;101593.91;5061884;28;20061;-83
2022/10/17 07:26:28;;;;;;;13.27;6.55;;;;;;;15.56;100.00;101589.44;5055771;28;20112;-82
2022/10/17 07:28:54;;;;;;;11.27;6.30;;;;;;;15.58;100.00;101600.84;5046307;28;20075;-81
2022/10/17 07:31:21;;;;;;;10.93;6.20;;;;;;;15.60;100.00;101615.78;5064768;28;20036;-83
2022/10/17 07:33:47;;;;;;;8.60;6.10;;;;;;;15.60;100.00;101634.53;5056093;28;20041;-83
2022/10/17 07:36:13;;;;;;;7.75;5.80;;;;;;;15.63;100.00;101653.00;5055387;28;20033;-84
2022/10/17 07:38:38;;;;;;;12.02;6.38;;;;;;;15.64;100.00;101676.16;5054732;28;20041;-84
2022/10/17 07:41:06;;;;;;;7.50;5.70;;;;;;;15.66;100.00;101700.13;5055174;28;20029;-84
2022/10/17 07:43:32;;;;;;;10.45;6.40;;;;;;;15.67;100.00;101726.78;5056765;28;20033;-83
2022/10/17 07:46:00;;;;;;;8.70;6.30;;;;;;;15.67;100.00;101732.13;5056400;28;20028;-82
2022/10/17 07:48:26;;;;;;;14.00;6.97;;;;;;;15.68;100.00;101744.53;5043490;28;20053;-83
2022/10/17 07:50:51;;;;;;;9.82;6.53;;;;;;;15.67;100.00;101753.56;5043845;28;20029;-82
2022/10/17 07:53:17;;;;;;;10.25;6.47;;;;;;;15.67;100.00;101744.66;5053750;28;20040;-82
2022/10/17 07:55:45;;;;;;;12.75;6.60;;;;;;;15.66;100.00;101762.56;5039543;28;20041;-83
2022/10/17 07:58:11;;;;;;;9.90;5.97;;;;;;;15.67;100.00;101756.25;5028575;28;20472;-82
2022/10/17 08:00:37;;;;;;;10.02;6.97;;;;;;;15.68;100.00;101744.53;5045255;28;20040;-83
2022/10/17 08:03:03;;;;;;;12.00;6.82;;;;;;;15.69;100.00;101740.03;5048284;28;20040;-81
2022/10/17 08:05:33;;;;;;;11.63;7.55;;;;;;;15.67;100.00;101745.53;5046998;28;20025;-80
2022/10/17 08:07:58;;;;;;;12.23;7.60;;;;;;;15.68;100.00;101749.03;5042862;28;20029;-80
2022/10/17 08:10:28;;;;;;;12.23;7.22;;;;;;;15.66;100.00;101745.66;5047698;28;20024;-81
2022/10/17 08:12:55;;;;;;;10.50;7.15;;;;;;;15.66;100.00;101748.31;5044954;28;20025;-83
2022/10/17 08:15:21;;;;;;;11.50;7.10;;;;;;;15.66;100.00;101756.38;5072377;28;20491;-84
2022/10/17 08:17:47;;;;;;;13.90;7.82;;;;;;;15.64;100.00;101777.91;5050856;28;20495;-83
2022/10/17 08:20:13;;;;;;;11.38;7.28;;;;;;;15.65;100.00;101803.69;5056806;28;20025;-83
2022/10/17 08:22:38;;;;;;;11.23;7.95;;;;;;;15.64;100.00;101815.41;5056697;28;20079;-84
2022/10/17 08:25:04;;;;;;;9.98;7.90;;;;;;;15.65;100.00;101826.97;5046967;28;20536;-84
2022/10/17 08:27:31;;;;;;;15.02;7.70;;;;;;;15.65;100.00;101800.19;5053855;28;20021;-84
2022/10/17 08:29:56;;;;;;;13.98;7.63;;;;;;;15.66;100.00;101807.25;5051378;28;20065;-83
2022/10/17 08:32:25;;;;;;;13.25;8.07;;;;;;;15.65;100.00;101809.06;5050289;28;20045;-83
2022/10/17 08:34:51;;;;;;;15.10;7.70;;;;;;;15.66;100.00;101815.28;5056158;28;20032;-82
2022/10/17 08:37:16;;;;;;;12.43;7.65;;;;;;;15.67;100.00;101798.22;5051868;28;20033;-82
2022/10/17 08:39:42;;;;;;;8.88;7.38;;;;;;;15.65;100.00;101803.69;5051451;28;20028;-83
2022/10/17 08:42:07;;;;;;;13.90;7.60;;;;;;;15.67;100.00;101814.28;5051471;28;20167;-83
2022/10/17 08:44:46;;;;;;;11.00;7.13;;;;;;;15.67;100.00;101808.94;5045880;28;20032;-82
2022/10/17 08:47:13;;;;;;;;;;;;;;;15.71;100.00;101797.84;5050841;28;20036;-83
2022/10/17 08:49:51;;;;;;;10.88;7.50;;;;;;;15.66;100.00;101792.00;5048281;28;20345;-83
2022/10/17 08:52:26;;;;;;;10.32;7.28;;;;;;;15.67;100.00;101800.91;5046061;28;20040;-83
2022/10/17 08:54:51;;;;;;;13.25;8.07;;;;;;;15.67;100.00;101790.19;5039132;28;20071;-83
2022/10/17 08:57:17;;;;;;;11.82;7.80;;;;;;;15.67;100.00;101793.72;5053240;28;20054;-82
2022/10/17 08:59:44;;;;;;;11.30;8.18;;;;;;;15.67;100.00;101798.22;5053282;28;20037;-84
2022/10/17 09:02:35;;;;;;;14.88;8.00;;;;;;;15.68;100.00;101800.78;5039102;28;20021;-84
2022/10/17 09:05:01;;;;;;;9.48;7.90;;;;;;;15.69;100.00;101807.00;5050999;28;20087;-83
2022/10/17 09:07:41;;;;;;;12.23;8.32;;;;;;;15.69;100.00;101815.88;5053808;28;20025;-83
2022/10/17 09:10:21;;;;;;;12.20;8.73;;;;;;;15.70;100.00;101827.44;5053583;28;20096;-84
2022/10/17 09:13:09;;;;;;;10.38;8.30;;;;;;;15.71;100.00;101847.88;5045168;28;20118;-83
2022/10/17 09:15:43;;;;;;;16.90;10.40;;;;;;;15.72;100.00;101862.97;5047654;28;20119;-84
2022/10/17 09:18:25;;;;;;;11.52;8.27;;;;;;;15.70;100.00;101870.28;5053005;28;20476;-84
2022/10/17 09:20:54;;;;;;;16.85;9.38;;;;;;;15.70;100.00;101879.19;5053517;28;20115;-85
2022/10/17 09:23:24;;;;;;;;;;;;;;;15.76;100.00;101858.25;5035434;28;20028;-84
2022/10/17 09:25:53;;;;;;;13.05;9.43;;;;;;;15.69;100.00;101844.50;5047374;28;19909;-83
2022/10/17 09:28:32;;;;;;;;;;;;;;;15.72;100.00;101804.91;5037769;28;20030;-84
2022/10/17 09:31:18;;;;;;;18.08;8.90;;;;;;;15.69;100.00;101781.06;5040199;28;19909;-84
2022/10/17 09:33:49;;;;;;;12.30;9.30;;;;;;;15.67;100.00;101766.06;5053849;28;20028;-84
2022/10/17 09:36:26;;;;;;;10.07;8.98;;;;;;;15.69;100.00;101777.53;5052286;28;20032;-84
2022/10/17 09:38:53;;;;;;;11.50;8.18;;;;;;;15.71;100.00;101787.13;5058349;28;20037;-84
2022/10/17 09:41:22;;;;;;;14.23;9.02;;;;;;;15.70;100.00;101804.19;5045121;28;20045;-84
2022/10/17 09:43:48;;;;;;;15.10;9.40;;;;;;;15.77;100.00;101827.81;5058125;28;20372;-85
2022/10/17 09:46:25;;;;;;;13.10;8.90;;;;;;;15.76;100.00;101839.50;5057359;28;20025;-84
2022/10/17 09:49:00;;;;;;;11.07;8.65;;;;;;;15.78;100.00;101842.91;5054029;28;20055;-84
2022/10/17 09:51:26;;;;;;;11.95;8.25;;;;;;;15.77;100.00;101819.75;5052349;28;20047;-84
2022/10/17 09:54:25;;;;;;;16.55;9.23;;;;;;;15.81;100.00;101816.72;5059506;28;20029;-84
2022/10/17 09:56:59;;;;;;;13.15;8.90;;;;;;;15.80;100.00;101804.28;5054535;28;20114;-84
2022/10/17 09:59:56;;;;;;;12.90;8.77;;;;;;;15.84;100.00;101811.09;5057368;28;20028;-84
2022/10/17 10:02:23;;;;;;;12.57;8.93;;;;;;;15.85;100.00;101806.59;5037594;28;20055;-84
2022/10/17 10:05:21;;;;;;;12.02;8.73;;;;;;;15.88;100.00;101809.84;5073839;28;20031;-84
2022/10/17 10:08:02;;;;;;;13.65;9.40;;;;;;;15.89;100.00;101808.03;5044741;28;20048;-84
2022/10/17 10:10:28;;;;;;;15.02;8.50;;;;;;;15.89;100.00;101818.75;5062051;28;20025;-85
2022/10/17 10:13:14;;;;;;;12.40;8.98;;;;;;;15.91;100.00;101836.38;5067382;28;20033;-85
2022/10/17 10:15:43;;;;;;;13.40;8.45;;;;;;;15.89;100.00;101829.47;5054711;28;20056;-87
2022/10/17 10:18:24;;;;;;;14.35;8.35;;;;;;;15.95;100.00;101841.50;5052875;28;20336;-87
2022/10/17 10:21:07;;;;;;;11.68;7.65;;;;;;;15.96;100.00;101848.56;5056764;28;20037;-86
2022/10/17 10:23:38;;;;;;;9.93;7.60;;;;;;;15.96;100.00;101861.97;5058592;28;20475;-86
2022/10/17 10:26:26;;;;;;;9.77;7.53;;;;;;;15.97;100.00;101855.59;5062880;28;20124;-87
2022/10/17 10:28:57;;;;;;;11.05;7.20;;;;;;;15.98;100.00;101871.56;5070736;28;20075;-86
2022/10/17 10:31:40;;;;;;;10.55;7.93;;;;;;;16.03;100.00;101879.22;5069023;28;20041;-87
2022/10/17 10:34:19;;;;;;;12.32;7.85;;;;;;;16.04;100.00;101870.22;5063801;28;20455;-86
2022/10/17 10:36:49;;;;;;;11.55;8.00;;;;;;;16.06;100.00;101885.16;5076207;28;20044;-86
2022/10/17 10:39:34;;;;;;;11.20;8.02;;;;;;;16.10;100.00;101891.13;5067868;28;20074;-86
2022/10/17 10:42:03;;;;;;;8.15;7.30;;;;;;;16.11;100.00;101908.91;5058045;28;20033;-86
2022/10/17 10:44:31;;;;;;;11.32;6.82;;;;;;;16.15;100.00;101920.22;5054347;28;20032;-85
2022/10/17 10:47:20;;;;;;;9.02;7.00;;;;;;;16.18;100.00;101919.97;5059699;28;20490;-85
2022/10/17 10:49:46;;;;;;;10.40;7.47;;;;;;;16.17;100.00;101928.97;5046065;28;20077;-85
2022/10/17 10:52:22;;;;;;;8.80;6.45;;;;;;;16.16;100.00;101932.66;5047980;28;20029;-86
2022/10/17 10:55:02;;;;;;;7.80;6.18;;;;;;;16.16;100.00;101933.50;5061050;28;20475;-85
2022/10/17 10:57:32;;;;;;;11.60;6.53;;;;;;;16.17;100.00;101932.53;5060271;28;20033;-85
2022/10/17 11:00:20;;;;;;;10.98;6.60;;;;;;;16.21;100.00;101935.81;5063978;28;20040;-85
2022/10/17 11:03:13;;;;;;;7.85;6.40;;;;;;;16.18;100.00;101925.34;5052158;28;20052;-85
2022/10/17 11:06:04;;;;;;;7.43;6.38;;;;;;;16.21;100.00;101930.44;5053534;28;20372;-86
2022/10/17 11:08:42;;;;;;;9.20;6.30;;;;;;;16.23;100.00;101931.16;5047460;28;20057;-85
2022/10/17 11:11:17;;;;;;;9.55;6.78;;;;;;;16.24;100.00;101930.19;5060518;28;20052;-86
2022/10/17 11:13:50;;;;;;;10.27;7.68;;;;;;;16.24;100.00;101930.19;5053930;28;20155;-84
2022/10/17 11:16:31;;;;;;;9.88;6.82;;;;;;;16.26;100.00;101944.31;5065346;28;20037;-87
2022/10/17 11:19:12;;;;;;;9.75;6.85;;;;;;;16.27;100.00;101949.53;5064378;28;20044;-87
2022/10/17 11:21:44;;;;;;;9.85;6.72;;;;;;;16.27;100.00;101954.91;5062596;28;20040;-87